Time;durP1;ratioP1;P1;durP2;ratioP2;P2;SDS_P1;SDS_P2;PMS_P1;PMS_P2;Temp;Humidity;BMP_temperature;BMP_pressure;BME280_temperature;BME280_humidity;BME280_pressure;Samples;Min_cycle;Max_cycle;Signal;HPM_P1;HPM_P2
2021/04/27 07:32:29;;;;;;;26.13;16.23;;;9.10;99.90;;;;;;5286109;23;20035;-84
2021/04/27 07:34:56;;;;;;;30.52;16.80;;;9.20;99.90;;;;;;4957268;28;20051;-83
2021/04/27 07:37:23;;;;;;;21.95;15.02;;;9.30;99.90;;;;;;4956565;28;20047;-85
2021/04/27 07:39:49;;;;;;;29.98;16.05;;;9.30;99.90;;;;;;4940400;29;20066;-86
2021/04/27 07:42:17;;;;;;;22.70;16.45;;;9.50;99.90;;;;;;4955978;28;20051;-85
2021/04/27 07:44:44;;;;;;;22.50;15.35;;;9.50;99.90;;;;;;4956691;29;20054;-86
2021/04/27 07:47:11;;;;;;;25.10;15.27;;;9.60;99.90;;;;;;4951487;28;20051;-86
2021/04/27 07:49:38;;;;;;;24.13;15.32;;;9.80;99.90;;;;;;4938069;29;20044;-85
2021/04/27 07:52:04;;;;;;;27.83;15.60;;;9.90;99.90;;;;;;4955798;28;20126;-88
2021/04/27 07:54:31;;;;;;;27.45;15.40;;;10.00;99.90;;;;;;4956128;28;20048;-86
2021/04/27 07:56:58;;;;;;;27.05;15.15;;;10.10;99.90;;;;;;4947600;28;20066;-87
2021/04/27 07:59:24;;;;;;;22.23;14.55;;;10.20;99.90;;;;;;4935181;29;20449;-84
2021/04/27 08:01:51;;;;;;;25.60;15.50;;;10.30;99.90;;;;;;4955055;29;20074;-85
2021/04/27 08:04:19;;;;;;;19.10;14.40;;;10.40;99.90;;;;;;4937511;29;20044;-86
2021/04/27 08:06:45;;;;;;;29.15;14.52;;;10.50;99.90;;;;;;4938156;29;20054;-85
2021/04/27 08:09:12;;;;;;;29.23;15.13;;;10.60;99.90;;;;;;4954440;28;20048;-86
2021/04/27 08:11:40;;;;;;;26.63;15.18;;;10.70;99.90;;;;;;4955755;29;20094;-86
2021/04/27 08:14:08;;;;;;;25.95;14.57;;;10.80;99.90;;;;;;4951893;28;20133;-84
2021/04/27 08:16:35;;;;;;;24.23;14.05;;;10.90;99.90;;;;;;4955336;28;20098;-83
2021/04/27 08:19:03;;;;;;;20.35;14.10;;;11.10;99.90;;;;;;4963088;28;20081;-84
2021/04/27 08:21:32;;;;;;;35.97;14.70;;;11.10;99.90;;;;;;4938177;29;20049;-86
2021/04/27 08:23:59;;;;;;;20.85;13.73;;;11.20;99.90;;;;;;4938716;29;20049;-86
2021/04/27 08:26:28;;;;;;;;;;;11.20;99.90;;;;;;4958103;28;20055;-89
2021/04/27 08:28:54;;;;;;;25.80;15.65;;;11.20;99.00;;;;;;4965545;28;19922;-84
2021/04/27 08:31:41;;;;;;;31.50;13.82;;;11.30;99.30;;;;;;4940048;29;20047;-84
2021/04/27 08:34:07;;;;;;;23.10;14.57;;;11.30;99.40;;;;;;4937616;28;20074;-85
2021/04/27 08:36:34;;;;;;;24.85;13.45;;;11.40;99.50;;;;;;4938039;29;20070;-87
2021/04/27 08:39:00;;;;;;;21.70;14.02;;;11.50;98.90;;;;;;4956691;28;20051;-85
2021/04/27 08:41:28;;;;;;;27.70;14.52;;;11.60;98.70;;;;;;4937815;28;20403;-88
2021/04/27 08:43:54;;;;;;;25.42;14.23;;;11.80;99.10;;;;;;4955451;28;20450;-87
2021/04/27 08:46:21;;;;;;;24.20;14.38;;;11.90;98.30;;;;;;4946213;28;20071;-87
2021/04/27 08:48:49;;;;;;;22.52;14.00;;;12.00;97.90;;;;;;4954785;28;20110;-84
2021/04/27 08:51:16;;;;;;;21.13;13.60;;;12.10;97.50;;;;;;4937517;28;20703;-88
2021/04/27 08:53:43;;;;;;;27.45;14.45;;;12.10;97.20;;;;;;4960064;28;20047;-91
2021/04/27 08:56:12;;;;;;;23.67;13.25;;;12.30;97.40;;;;;;4939456;28;20094;-90
2021/04/27 08:58:39;;;;;;;23.08;12.70;;;12.30;96.40;;;;;;4939742;29;20066;-86
2021/04/27 09:01:06;;;;;;;22.55;13.13;;;12.50;96.30;;;;;;4940989;28;20079;-88
2021/04/27 09:03:43;;;;;;;23.35;14.55;;;12.50;96.20;;;;;;4940445;29;20047;-89
2021/04/27 09:06:15;;;;;;;20.05;13.88;;;12.60;96.30;;;;;;4938036;28;20078;-87
2021/04/27 09:08:42;;;;;;;28.70;12.75;;;12.70;96.20;;;;;;4941151;28;20109;-87
2021/04/27 09:11:47;;;;;;;24.85;12.90;;;13.00;96.50;;;;;;4957480;28;20528;-89
2021/04/27 09:14:19;;;;;;;27.02;13.75;;;13.20;95.80;;;;;;4877598;29;20053;-93
2021/04/27 09:16:50;;;;;;;17.40;12.77;;;13.20;94.50;;;;;;4880593;29;20060;-89
2021/04/27 09:19:43;;;;;;;21.52;13.13;;;13.30;94.40;;;;;;4904891;29;20052;-88
2021/04/27 09:22:18;;;;;;;19.40;12.80;;;13.40;95.00;;;;;;4859957;29;20124;-89
2021/04/27 09:24:53;;;;;;;;;;;13.60;93.90;;;;;;4878694;29;20052;-86
2021/04/27 09:27:34;;;;;;;19.98;14.10;;;13.70;93.20;;;;;;4911164;29;20434;-88
2021/04/27 09:30:23;;;;;;;22.10;12.27;;;13.80;93.30;;;;;;4876849;29;20059;-88
2021/04/27 09:32:58;;;;;;;18.05;12.63;;;13.90;93.60;;;;;;4875326;29;20057;-89
2021/04/27 09:35:44;;;;;;;21.50;12.95;;;14.10;93.10;;;;;;4892814;29;20057;-90
2021/04/27 09:38:26;;;;;;;17.52;12.25;;;14.30;92.40;;;;;;4908480;29;20057;-88
2021/04/27 09:41:01;;;;;;;25.58;12.75;;;14.50;92.80;;;;;;4887560;29;20048;-89
2021/04/27 09:43:40;;;;;;;21.73;11.77;;;14.60;91.60;;;;;;4903344;29;20056;-92
2021/04/27 09:46:14;;;;;;;17.00;11.48;;;14.80;91.20;;;;;;4960987;28;20039;-91
2021/04/27 09:48:52;;;;;;;21.35;11.00;;;14.80;90.20;;;;;;4963063;28;20055;-90
2021/04/27 09:51:36;;;;;;;17.38;10.48;;;14.90;89.50;;;;;;4961831;28;20054;-87
2021/04/27 09:54:07;;;;;;;25.08;10.90;;;15.10;89.60;;;;;;4940081;28;20146;-87
2021/04/27 09:56:41;;;;;;;26.83;11.15;;;15.10;87.70;;;;;;4960509;28;20062;-88
2021/04/27 09:59:31;;;;;;;17.38;10.02;;;15.10;85.80;;;;;;4950921;28;20167;-89
2021/04/27 10:02:01;;;;;;;18.73;10.52;;;15.00;84.80;;;;;;4933928;29;20046;-86
2021/04/27 10:04:28;;;;;;;18.92;10.63;;;15.00;85.60;;;;;;4934241;29;20426;-88
2021/04/27 10:07:01;;;;;;;15.32;9.60;;;15.20;87.70;;;;;;4937597;29;20421;-88
2021/04/27 10:09:28;;;;;;;17.15;9.65;;;15.40;86.10;;;;;;4956365;28;20051;-88
2021/04/27 10:11:57;;;;;;;16.50;9.30;;;15.60;84.40;;;;;;4956828;29;20078;-86
2021/04/27 10:14:24;;;;;;;24.23;10.40;;;15.60;81.30;;;;;;4956346;28;20063;-86
2021/04/27 10:16:51;;;;;;;14.05;9.98;;;15.60;82.90;;;;;;4935271;29;20055;-86
2021/04/27 10:19:18;;;;;;;14.60;10.05;;;15.70;82.60;;;;;;4939580;29;20506;-86
2021/04/27 10:21:45;;;;;;;15.63;8.85;;;15.70;82.40;;;;;;4939974;29;20063;-86
2021/04/27 10:24:23;;;;;;;14.30;7.40;;;15.60;79.80;;;;;;4954717;28;20050;-88
2021/04/27 10:26:50;;;;;;;23.27;8.95;;;15.60;78.80;;;;;;4940183;29;20047;-88
2021/04/27 10:29:18;;;;;;;15.98;7.60;;;15.70;80.00;;;;;;4956158;28;20058;-87
2021/04/27 10:31:46;;;;;;;15.37;6.90;;;15.80;79.00;;;;;;4938691;29;20502;-86
2021/04/27 10:34:17;;;;;;;11.48;6.60;;;15.90;77.10;;;;;;4956244;28;20047;-90
2021/04/27 10:36:49;;;;;;;10.70;6.55;;;16.00;75.60;;;;;;4955067;28;20047;-89
2021/04/27 10:39:17;;;;;;;8.88;6.28;;;16.10;75.40;;;;;;4956027;28;20062;-88
2021/04/27 10:41:53;;;;;;;12.63;6.03;;;16.30;76.10;;;;;;4955879;28;20565;-88
2021/04/27 10:44:23;;;;;;;18.98;7.10;;;16.50;74.90;;;;;;4938597;29;20063;-89
2021/04/27 10:47:01;;;;;;;24.38;7.38;;;16.50;74.60;;;;;;4936664;29;20055;-85
2021/04/27 10:49:36;;;;;;;14.73;6.67;;;16.60;74.40;;;;;;4957301;29;20407;-85
2021/04/27 10:52:04;;;;;;;9.02;6.40;;;16.50;74.40;;;;;;4959231;28;20302;-82
2021/04/27 10:54:36;;;;;;;14.00;6.22;;;16.60;74.30;;;;;;4956688;28;20047;-84
2021/04/27 10:57:23;;;;;;;10.27;6.53;;;16.70;73.70;;;;;;4937274;29;20217;-83
2021/04/27 10:59:49;;;;;;;13.27;6.00;;;16.60;71.90;;;;;;4974270;28;20050;-83
2021/04/27 11:02:26;;;;;;;14.93;6.57;;;16.60;72.50;;;;;;4945783;28;20098;-85
2021/04/27 11:05:13;;;;;;;8.85;5.55;;;16.60;67.70;;;;;;4939407;29;20055;-84
2021/04/27 11:07:39;;;;;;;9.68;5.78;;;16.60;68.10;;;;;;4938779;29;20492;-82
2021/04/27 11:10:19;;;;;;;10.07;5.70;;;16.70;68.80;;;;;;4939053;28;20487;-85
2021/04/27 11:13:01;;;;;;;12.32;5.22;;;16.70;69.40;;;;;;4956304;28;20383;-83
2021/04/27 11:15:34;;;;;;;9.85;5.25;;;16.80;68.70;;;;;;4957026;28;20048;-82
2021/04/27 11:18:11;;;;;;;9.88;5.28;;;16.90;68.80;;;;;;4951447;28;20110;-86
2021/04/27 11:20:43;;;;;;;7.70;4.78;;;17.00;68.50;;;;;;4953008;28;20055;-83
2021/04/27 11:23:40;;;;;;;8.88;4.40;;;17.20;66.90;;;;;;4933892;28;20055;-83
2021/04/27 11:26:31;;;;;;;9.15;4.68;;;17.30;66.90;;;;;;4933939;29;20391;-84
2021/04/27 11:29:16;;;;;;;8.20;4.82;;;17.40;66.00;;;;;;4936200;29;20387;-84
2021/04/27 11:32:09;;;;;;;10.05;4.63;;;17.50;66.60;;;;;;4936284;29;20062;-87
2021/04/27 11:34:54;;;;;;;7.43;4.35;;;17.60;65.70;;;;;;4949585;28;20051;-87
2021/04/27 11:37:24;;;;;;;9.23;6.00;;;17.60;67.00;;;;;;4952786;28;20059;-86
2021/04/27 11:39:52;;;;;;;10.55;5.80;;;17.60;68.10;;;;;;4963396;28;20055;-86
2021/04/27 11:42:24;;;;;;;7.60;5.28;;;17.60;68.20;;;;;;4954080;28;20577;-86
2021/04/27 11:44:56;;;;;;;8.60;4.90;;;17.60;68.10;;;;;;4937850;29;20110;-87
2021/04/27 11:47:23;;;;;;;9.18;5.00;;;17.50;67.80;;;;;;4934369;29;20133;-86
2021/04/27 11:50:01;;;;;;;12.05;4.40;;;17.50;67.60;;;;;;4940727;29;20047;-88
2021/04/27 11:52:39;;;;;;;9.95;4.28;;;17.50;66.60;;;;;;4933912;28;20502;-90
2021/04/27 11:55:25;;;;;;;7.07;3.70;;;17.50;66.20;;;;;;4965915;28;20047;-87
2021/04/27 11:57:59;;;;;;;9.18;3.72;;;17.60;64.80;;;;;;4935529;28;20126;-87
2021/04/27 12:00:44;;;;;;;10.82;4.00;;;17.50;63.90;;;;;;4933791;28;20055;-88
2021/04/27 12:03:22;;;;;;;6.53;2.67;;;17.50;63.30;;;;;;4951566;28;20075;-88
2021/04/27 12:06:16;;;;;;;9.25;3.33;;;17.60;61.70;;;;;;4936442;29;20465;-88
2021/04/27 12:08:47;;;;;;;5.65;2.97;;;17.60;62.10;;;;;;4937373;29;20043;-86
2021/04/27 12:11:30;;;;;;;8.18;3.25;;;17.70;61.50;;;;;;4936792;29;20051;-86
2021/04/27 12:14:02;;;;;;;9.63;3.22;;;17.70;62.70;;;;;;4944487;28;20058;-87
2021/04/27 12:16:36;;;;;;;9.25;2.80;;;17.80;63.80;;;;;;4935457;28;20054;-85
2021/04/27 12:19:29;;;;;;;6.57;3.00;;;18.00;63.80;;;;;;4936713;28;20043;-86
2021/04/27 12:22:06;;;;;;;8.05;3.30;;;18.10;62.30;;;;;;4934219;28;20055;-87
2021/04/27 12:24:35;;;;;;;6.22;3.38;;;17.90;62.80;;;;;;4910745;28;20454;-83
2021/04/27 12:27:10;;;;;;;8.13;3.15;;;18.00;63.70;;;;;;4950930;28;20058;-85
2021/04/27 12:29:50;;;;;;;7.63;2.85;;;18.00;63.00;;;;;;4952899;28;20439;-87
2021/04/27 12:32:26;;;;;;;4.90;2.50;;;18.10;61.30;;;;;;4934415;28;20573;-86
2021/04/27 12:35:18;;;;;;;9.70;2.60;;;18.10;61.00;;;;;;4936257;29;20043;-85
2021/04/27 12:37:59;;;;;;;7.00;2.75;;;18.10;61.60;;;;;;4931368;29;20035;-86
2021/04/27 12:40:36;;;;;;;7.38;2.80;;;18.10;59.20;;;;;;4953218;28;20055;-86
2021/04/27 12:43:08;;;;;;;7.05;2.22;;;18.10;60.20;;;;;;4950804;28;20051;-91
2021/04/27 12:45:50;;;;;;;6.88;2.40;;;18.20;58.70;;;;;;4948410;29;20113;-89
2021/04/27 12:48:20;;;;;;;5.57;2.47;;;18.20;57.40;;;;;;4933633;29;20312;-84
2021/04/27 12:50:46;;;;;;;5.47;2.35;;;18.10;59.60;;;;;;4951511;28;20040;-84
2021/04/27 12:53:13;;;;;;;10.18;2.28;;;18.10;59.50;;;;;;4934048;28;20526;-86
2021/04/27 12:55:51;;;;;;;4.70;2.45;;;18.20;58.60;;;;;;4953725;28;20499;-85
2021/04/27 12:58:27;;;;;;;5.67;2.07;;;18.20;57.30;;;;;;4950589;28;20398;-87
2021/04/27 13:01:01;;;;;;;3.85;2.00;;;18.30;54.40;;;;;;4934614;29;20576;-85
2021/04/27 13:03:31;;;;;;;10.90;2.05;;;18.20;56.30;;;;;;4933197;28;20066;-84
2021/04/27 13:05:58;;;;;;;8.23;2.30;;;18.10;57.50;;;;;;4931303;29;20392;-84
2021/04/27 13:08:28;;;;;;;4.15;1.90;;;18.20;59.00;;;;;;4950686;28;20047;-85
2021/04/27 13:11:03;;;;;;;7.30;2.10;;;18.30;60.40;;;;;;4933482;29;20536;-84
2021/04/27 13:13:30;;;;;;;7.07;2.15;;;18.40;61.00;;;;;;4950759;28;20418;-84
2021/04/27 13:16:02;;;;;;;4.15;1.80;;;18.50;61.50;;;;;;4935569;28;20062;-86
2021/04/27 13:18:31;;;;;;;5.43;2.03;;;18.60;61.50;;;;;;4936440;29;20035;-85
2021/04/27 13:20:59;;;;;;;;;;;18.70;60.70;;;;;;4934395;29;20060;-84
2021/04/27 13:23:33;;;;;;;5.30;1.77;;;18.60;59.90;;;;;;4935901;28;20457;-85
2021/04/27 13:26:10;;;;;;;3.90;2.28;;;18.70;59.40;;;;;;4934535;29;20050;-85
2021/04/27 13:28:39;;;;;;;4.82;1.83;;;18.70;59.60;;;;;;4935800;29;20478;-84
2021/04/27 13:31:06;;;;;;;8.65;2.15;;;18.80;58.40;;;;;;4952285;28;20062;-88
2021/04/27 13:33:42;;;;;;;7.50;2.20;;;18.90;58.20;;;;;;4957864;28;20070;-84
2021/04/27 13:36:13;;;;;;;6.43;2.00;;;18.90;57.80;;;;;;4960569;28;20051;-86
2021/04/27 13:38:41;;;;;;;9.82;1.95;;;18.90;58.20;;;;;;4936652;29;20047;-85
2021/04/27 13:41:09;;;;;;;7.00;2.17;;;18.90;57.90;;;;;;4936100;28;20717;-87
2021/04/27 13:43:40;;;;;;;;;;;18.90;57.30;;;;;;4931825;29;20051;-85
2021/04/27 13:46:09;;;;;;;4.90;1.70;;;18.80;56.80;;;;;;4935041;28;19969;-89
2021/04/27 13:48:36;;;;;;;3.45;1.75;;;18.80;58.00;;;;;;4934463;29;20521;-91
2021/04/27 13:51:14;;;;;;;4.80;1.80;;;18.90;57.30;;;;;;4940999;28;20117;-92
2021/04/27 13:53:41;;;;;;;12.02;2.70;;;18.90;56.50;;;;;;4939266;28;20445;-91
2021/04/27 13:56:13;;;;;;;2.88;1.42;;;18.80;56.80;;;;;;4939254;28;20122;-90
2021/04/27 13:58:39;;;;;;;16.00;2.60;;;18.80;56.50;;;;;;4942503;28;20054;-91
2021/04/27 14:01:06;;;;;;;8.32;2.17;;;18.80;56.20;;;;;;4941037;28;20114;-91
2021/04/27 14:03:32;;;;;;;8.23;2.10;;;18.90;56.50;;;;;;4955944;28;20043;-91
2021/04/27 14:05:58;;;;;;;6.15;1.85;;;18.90;56.30;;;;;;4942502;28;20438;-90
2021/04/27 14:08:25;;;;;;;6.97;1.98;;;18.90;55.90;;;;;;4941250;28;20047;-90
2021/04/27 14:10:52;;;;;;;8.77;2.17;;;18.80;56.30;;;;;;4937279;29;20462;-90
2021/04/27 14:13:19;;;;;;;4.43;2.17;;;18.80;57.10;;;;;;4936412;28;20054;-90
2021/04/27 14:15:49;;;;;;;5.82;2.13;;;18.80;56.60;;;;;;4953542;28;20047;-90
2021/04/27 14:18:16;;;;;;;8.02;2.65;;;18.80;55.70;;;;;;4953111;28;20059;-90
2021/04/27 14:20:43;;;;;;;8.50;2.50;;;18.80;55.70;;;;;;4953262;28;20506;-90
2021/04/27 14:23:11;;;;;;;3.45;1.95;;;18.70;55.50;;;;;;4936144;28;20043;-91
2021/04/27 14:25:39;;;;;;;8.95;2.92;;;18.70;54.60;;;;;;4953513;28;20047;-90
2021/04/27 14:28:07;;;;;;;4.95;2.40;;;18.60;56.30;;;;;;4952941;28;20047;-91
2021/04/27 14:30:34;;;;;;;7.22;2.40;;;18.60;55.70;;;;;;4936139;29;20083;-91
2021/04/27 14:33:07;;;;;;;5.63;2.65;;;18.60;55.00;;;;;;4968202;28;20498;-91
2021/04/27 14:35:35;;;;;;;6.10;2.60;;;18.50;56.30;;;;;;4936901;29;20050;-88
2021/04/27 14:38:03;;;;;;;7.25;2.67;;;18.40;55.80;;;;;;4936726;29;20126;-88
2021/04/27 14:40:31;;;;;;;4.53;2.10;;;18.40;55.10;;;;;;4934378;28;20043;-90
2021/04/27 14:43:04;;;;;;;4.45;2.50;;;18.40;54.60;;;;;;4941335;28;20082;-89
2021/04/27 14:45:32;;;;;;;10.05;2.55;;;18.40;54.30;;;;;;4953574;28;20039;-89
2021/04/27 14:48:07;;;;;;;9.13;2.65;;;18.30;54.00;;;;;;4952690;28;20043;-89
2021/04/27 14:50:35;;;;;;;9.85;3.00;;;18.30;55.20;;;;;;4936104;29;20070;-89
2021/04/27 14:53:01;;;;;;;6.03;2.67;;;18.40;56.60;;;;;;4938724;29;20553;-89
2021/04/27 14:55:28;;;;;;;4.82;2.63;;;18.50;57.80;;;;;;4939836;28;20073;-89
2021/04/27 14:57:55;;;;;;;6.53;2.88;;;18.50;57.20;;;;;;4939747;29;20403;-92
2021/04/27 15:00:26;;;;;;;8.07;3.03;;;18.50;57.50;;;;;;4940420;28;20063;-88
2021/04/27 15:02:52;;;;;;;5.93;3.30;;;18.40;57.70;;;;;;4939628;29;20047;-90
2021/04/27 15:05:21;;;;;;;6.40;2.90;;;18.30;56.20;;;;;;4938809;28;20166;-90
2021/04/27 15:07:50;;;;;;;10.02;3.63;;;18.30;56.60;;;;;;4939098;29;20610;-89
2021/04/27 15:10:18;;;;;;;7.30;3.13;;;18.20;56.70;;;;;;4938855;28;20094;-90
2021/04/27 15:12:46;;;;;;;5.35;2.70;;;18.20;57.10;;;;;;4939933;29;20047;-89
2021/04/27 15:15:13;;;;;;;7.10;3.30;;;18.10;58.00;;;;;;4951965;28;20039;-90
2021/04/27 15:17:40;;;;;;;7.25;3.00;;;18.20;59.30;;;;;;4956157;28;20085;-90
2021/04/27 15:20:08;;;;;;;4.38;2.40;;;18.30;58.80;;;;;;4939007;29;20051;-88
2021/04/27 15:22:36;;;;;;;5.22;2.90;;;18.20;57.10;;;;;;4956386;28;20071;-89
2021/04/27 15:25:12;;;;;;;6.88;3.00;;;18.20;58.30;;;;;;4939561;29;20077;-89
2021/04/27 15:27:39;;;;;;;7.03;3.30;;;18.10;59.50;;;;;;4936007;29;20055;-90
2021/04/27 15:30:07;;;;;;;7.22;3.00;;;18.10;59.20;;;;;;4955686;28;20569;-90
2021/04/27 15:32:40;;;;;;;5.63;2.97;;;18.00;60.10;;;;;;4938377;29;20047;-92
2021/04/27 15:35:08;;;;;;;10.90;3.13;;;17.90;59.30;;;;;;4955504;28;20046;-91
2021/04/27 15:37:40;;;;;;;10.60;3.20;;;17.90;60.20;;;;;;4956398;28;20051;-89
2021/04/27 15:40:08;;;;;;;11.40;3.15;;;17.90;60.40;;;;;;4955991;28;20110;-90
2021/04/27 15:42:34;;;;;;;12.18;3.50;;;17.70;60.90;;;;;;4939560;29;20054;-88
2021/04/27 15:45:01;;;;;;;10.68;3.22;;;17.70;61.80;;;;;;4939259;29;20106;-89
2021/04/27 15:47:28;;;;;;;9.95;3.30;;;17.60;61.50;;;;;;4964114;28;20048;-90
2021/04/27 15:49:54;;;;;;;6.05;2.80;;;17.60;62.00;;;;;;4929404;29;20059;-90
2021/04/27 15:52:20;;;;;;;8.50;3.35;;;17.60;62.80;;;;;;4940829;28;20114;-90
2021/04/27 15:54:48;;;;;;;6.32;3.30;;;17.50;62.20;;;;;;4959389;28;20102;-88
2021/04/27 15:57:14;;;;;;;7.63;3.13;;;17.40;62.80;;;;;;4942488;28;20051;-88
2021/04/27 15:59:41;;;;;;;7.40;3.28;;;17.40;62.50;;;;;;4938699;29;20043;-88
2021/04/27 16:02:07;;;;;;;10.23;3.35;;;17.40;62.80;;;;;;4937821;29;20094;-89
2021/04/27 16:04:34;;;;;;;6.07;3.88;;;17.40;63.40;;;;;;4937773;29;20051;-88
2021/04/27 16:07:01;;;;;;;7.35;3.53;;;17.40;63.60;;;;;;4955991;28;20062;-89
2021/04/27 16:09:27;;;;;;;9.15;3.92;;;17.40;64.30;;;;;;4938558;28;20051;-89
2021/04/27 16:11:54;;;;;;;8.80;3.60;;;17.30;65.50;;;;;;4955140;28;20498;-90
2021/04/27 16:14:21;;;;;;;11.77;4.18;;;17.20;65.30;;;;;;4938035;29;20055;-88
2021/04/27 16:16:48;;;;;;;12.07;4.43;;;17.10;65.60;;;;;;4938228;29;20117;-88
2021/04/27 16:19:14;;;;;;;7.13;4.05;;;17.10;66.10;;;;;;4954776;28;20051;-90
2021/04/27 16:21:41;;;;;;;8.88;4.38;;;17.10;65.90;;;;;;4938829;29;20164;-90
2021/04/27 16:24:08;;;;;;;8.93;4.30;;;17.00;66.30;;;;;;4954369;28;20055;-91
2021/04/27 16:26:34;;;;;;;9.68;4.75;;;16.90;66.80;;;;;;4937574;29;20043;-90
2021/04/27 16:29:00;;;;;;;10.70;4.53;;;16.90;67.20;;;;;;4937845;29;20047;-90
2021/04/27 16:31:27;;;;;;;15.85;4.55;;;16.70;66.90;;;;;;4937129;28;20051;-88
2021/04/27 16:33:56;;;;;;;8.27;3.95;;;16.80;66.60;;;;;;4938258;29;20047;-91
2021/04/27 16:36:23;;;;;;;10.55;4.10;;;16.80;66.70;;;;;;4953218;28;20549;-89
2021/04/27 16:38:49;;;;;;;9.63;4.38;;;16.70;65.70;;;;;;4937605;29;20102;-87
2021/04/27 16:41:16;;;;;;;7.93;4.20;;;16.70;65.30;;;;;;4954137;28;20106;-89
2021/04/27 16:43:43;;;;;;;8.40;3.67;;;16.70;64.20;;;;;;4938384;28;20067;-90
2021/04/27 16:46:11;;;;;;;9.50;3.90;;;16.60;63.20;;;;;;4947631;28;20069;-89
2021/04/27 16:48:37;;;;;;;6.28;3.65;;;16.50;62.70;;;;;;4956774;28;20525;-90
2021/04/27 16:51:07;;;;;;;9.13;3.22;;;16.50;62.30;;;;;;4938924;29;20074;-92
2021/04/27 16:53:34;;;;;;;7.63;4.15;;;16.60;62.10;;;;;;4937881;29;20066;-89
2021/04/27 16:56:00;;;;;;;8.07;3.28;;;16.60;62.20;;;;;;4936957;29;20047;-89
2021/04/27 16:58:27;;;;;;;9.15;3.00;;;16.60;61.80;;;;;;4953748;28;20098;-90
2021/04/27 17:00:53;;;;;;;8.70;3.38;;;16.60;62.00;;;;;;4937617;28;20047;-91
2021/04/27 17:03:20;;;;;;;8.43;3.17;;;16.60;60.70;;;;;;4927759;28;20055;-90
2021/04/27 17:05:48;;;;;;;7.18;3.08;;;16.60;60.20;;;;;;4922957;28;20061;-91
2021/04/27 17:08:14;;;;;;;12.82;3.50;;;16.50;59.50;;;;;;4938598;28;20066;-88
2021/04/27 17:10:42;;;;;;;7.90;3.40;;;16.50;59.10;;;;;;4930681;29;20062;-89
2021/04/27 17:13:10;;;;;;;5.10;2.88;;;16.50;58.20;;;;;;4944691;28;20048;-88
2021/04/27 17:15:38;;;;;;;5.73;2.90;;;16.50;57.50;;;;;;4926840;29;20054;-89
2021/04/27 17:18:05;;;;;;;6.40;3.08;;;16.50;57.50;;;;;;4931776;28;20562;-90
2021/04/27 17:20:33;;;;;;;8.80;2.92;;;16.50;57.70;;;;;;4947807;28;20055;-89
2021/04/27 17:23:01;;;;;;;4.50;2.90;;;16.60;57.60;;;;;;4932043;29;20074;-90
2021/04/27 17:25:29;;;;;;;5.82;3.78;;;16.60;56.70;;;;;;4931520;28;20499;-89
2021/04/27 17:27:55;;;;;;;7.18;3.42;;;16.60;57.00;;;;;;4946478;28;20394;-90
2021/04/27 17:30:22;;;;;;;7.78;3.08;;;16.50;56.40;;;;;;4957371;28;20055;-90
2021/04/27 17:32:49;;;;;;;8.45;2.90;;;16.40;57.00;;;;;;4955795;28;20102;-90
2021/04/27 17:35:16;;;;;;;5.88;2.85;;;16.40;57.10;;;;;;4933689;28;20105;-92
2021/04/27 17:37:43;;;;;;;5.57;2.60;;;16.40;56.60;;;;;;4951636;28;20047;-90
2021/04/27 17:40:11;;;;;;;6.22;2.22;;;16.30;57.00;;;;;;4937777;28;20053;-90
2021/04/27 17:42:39;;;;;;;7.72;3.03;;;16.30;56.70;;;;;;4952007;28;20138;-90
2021/04/27 17:45:07;;;;;;;5.88;2.45;;;16.40;56.90;;;;;;4929871;28;20058;-93
2021/04/27 17:47:36;;;;;;;5.55;2.50;;;16.50;56.40;;;;;;4932478;28;20101;-90
2021/04/27 17:50:05;;;;;;;5.15;2.60;;;16.70;56.70;;;;;;4941394;28;20562;-91
2021/04/27 17:52:31;;;;;;;;;;;16.90;55.30;;;;;;4929540;29;20059;-92
2021/04/27 17:54:58;;;;;;;6.75;2.42;;;17.20;54.60;;;;;;4931076;28;19930;-91
2021/04/27 17:57:24;;;;;;;6.53;2.60;;;17.50;54.50;;;;;;4930804;28;20075;-93
2021/04/27 17:59:51;;;;;;;6.38;2.85;;;17.90;53.70;;;;;;4924964;29;20062;-91
2021/04/27 18:02:18;;;;;;;10.93;5.57;;;18.30;54.10;;;;;;4930642;28;20047;-92
2021/04/27 18:04:46;;;;;;;5.15;2.22;;;18.50;54.00;;;;;;4947430;28;20523;-90
2021/04/27 18:07:12;;;;;;;5.53;2.20;;;18.80;54.00;;;;;;4951055;28;20109;-89
2021/04/27 18:09:39;;;;;;;5.55;2.22;;;19.10;53.50;;;;;;4935926;28;20054;-90
2021/04/27 18:12:06;;;;;;;6.72;2.13;;;19.40;53.80;;;;;;4955652;28;20047;-90
2021/04/27 18:14:33;;;;;;;8.82;2.67;;;19.50;53.50;;;;;;4934066;28;20102;-90
2021/04/27 18:17:00;;;;;;;8.02;3.45;;;19.60;53.70;;;;;;4953758;28;20130;-88
2021/04/27 18:19:28;;;;;;;6.25;2.50;;;19.40;54.30;;;;;;4937687;28;20059;-90
2021/04/27 18:21:56;;;;;;;5.53;2.80;;;19.30;55.10;;;;;;4939119;29;20047;-91
2021/04/27 18:24:23;;;;;;;7.22;2.80;;;19.20;55.70;;;;;;4941170;28;20055;-89
2021/04/27 18:26:50;;;;;;;4.95;2.80;;;19.10;56.30;;;;;;4957189;28;20050;-90
2021/04/27 18:29:16;;;;;;;7.13;3.25;;;19.30;56.70;;;;;;4937509;28;20122;-89
2021/04/27 18:31:44;;;;;;;6.43;3.42;;;19.20;57.20;;;;;;4942931;29;20079;-92
2021/04/27 18:34:11;;;;;;;7.38;3.60;;;18.80;58.10;;;;;;4939744;28;20051;-93
2021/04/27 18:36:40;;;;;;;5.75;3.60;;;18.80;60.10;;;;;;4945845;28;20074;-89
2021/04/27 18:39:06;;;;;;;7.70;4.47;;;18.60;61.70;;;;;;4976109;28;20106;-91
2021/04/27 18:41:33;;;;;;;8.57;4.10;;;18.10;63.10;;;;;;4954846;28;20072;-90
2021/04/27 18:43:59;;;;;;;9.63;4.45;;;17.50;65.30;;;;;;4948449;29;20050;-88
2021/04/27 18:46:27;;;;;;;6.80;4.13;;;16.90;66.60;;;;;;4949495;29;20429;-89
2021/04/27 18:48:53;;;;;;;8.07;5.13;;;16.40;68.60;;;;;;4952692;29;20055;-87
2021/04/27 18:51:22;;;;;;;9.93;5.00;;;15.80;70.50;;;;;;4949343;28;20097;-89
2021/04/27 18:53:49;;;;;;;9.82;4.68;;;15.40;71.40;;;;;;4954224;28;20051;-90
2021/04/27 18:56:15;;;;;;;6.68;4.40;;;15.00;72.70;;;;;;4942715;28;20071;-89
2021/04/27 18:58:47;;;;;;;10.70;4.82;;;14.70;73.10;;;;;;4930716;29;20522;-90
2021/04/27 19:01:14;;;;;;;10.88;5.18;;;14.40;74.20;;;;;;4931008;28;20127;-88
2021/04/27 19:03:42;;;;;;;12.27;4.90;;;14.20;74.30;;;;;;4956026;28;20130;-91
2021/04/27 19:06:09;;;;;;;9.37;5.10;;;14.00;74.70;;;;;;4943351;28;20065;-88
2021/04/27 19:08:35;;;;;;;8.20;4.72;;;13.80;75.00;;;;;;4942897;29;20290;-88
2021/04/27 19:11:03;;;;;;;7.22;4.38;;;13.60;75.20;;;;;;4939943;29;20097;-89
2021/04/27 19:13:30;;;;;;;8.77;5.05;;;13.50;75.90;;;;;;4938801;28;20066;-88
2021/04/27 19:15:56;;;;;;;14.40;4.90;;;13.30;76.30;;;;;;4966227;28;20043;-88
2021/04/27 19:18:23;;;;;;;15.38;5.40;;;13.10;76.70;;;;;;4932616;29;20066;-89
2021/04/27 19:20:52;;;;;;;;;;;13.10;76.80;;;;;;4932137;29;20505;-88
2021/04/27 19:23:19;;;;;;;10.75;5.22;;;12.90;78.20;;;;;;4931520;28;19962;-89
2021/04/27 19:25:49;;;;;;;18.38;5.82;;;12.80;78.20;;;;;;4933382;29;20573;-92
2021/04/27 19:28:15;;;;;;;12.63;5.15;;;12.60;78.80;;;;;;4949519;28;20545;-88
2021/04/27 19:30:45;;;;;;;11.50;5.97;;;12.50;78.70;;;;;;4928008;29;20047;-91
2021/04/27 19:33:13;;;;;;;15.38;5.28;;;12.50;79.30;;;;;;4950499;28;20052;-88
2021/04/27 19:35:40;;;;;;;12.10;5.25;;;12.40;80.00;;;;;;4928705;29;20043;-88
2021/04/27 19:38:10;;;;;;;11.82;5.07;;;12.20;80.10;;;;;;4927246;29;20075;-89
2021/04/27 19:40:36;;;;;;;12.52;5.72;;;12.20;81.10;;;;;;4929865;29;20051;-88
2021/04/27 19:43:03;;;;;;;11.30;4.97;;;12.00;81.20;;;;;;4927768;29;20067;-88
2021/04/27 19:45:33;;;;;;;11.38;5.95;;;11.90;81.70;;;;;;4926711;29;20055;-89
2021/04/27 19:48:02;;;;;;;9.88;6.60;;;11.90;82.50;;;;;;4923265;29;20582;-89
2021/04/27 19:50:31;;;;;;;9.13;6.32;;;11.80;83.10;;;;;;4956373;28;20051;-88
2021/04/27 19:52:59;;;;;;;13.35;6.65;;;11.70;83.60;;;;;;4929078;29;20075;-87
2021/04/27 19:55:25;;;;;;;14.88;7.82;;;11.60;84.30;;;;;;4925636;29;20861;-87
2021/04/27 19:57:52;;;;;;;13.43;8.10;;;11.60;84.20;;;;;;4924893;29;20055;-89
2021/04/27 20:00:21;;;;;;;10.88;7.72;;;11.50;84.40;;;;;;4923921;28;20103;-87
2021/04/27 20:02:47;;;;;;;13.48;9.10;;;11.40;85.60;;;;;;4925132;29;20044;-88
2021/04/27 20:05:17;;;;;;;13.93;9.23;;;11.30;86.40;;;;;;4927624;28;20048;-89
2021/04/27 20:07:43;;;;;;;16.52;9.68;;;11.20;88.70;;;;;;4928739;29;20051;-87
2021/04/27 20:10:11;;;;;;;16.58;10.93;;;11.20;90.60;;;;;;4929888;28;20043;-87
2021/04/27 20:12:38;;;;;;;17.20;11.77;;;11.10;91.70;;;;;;4943481;28;20055;-89
2021/04/27 20:15:06;;;;;;;18.05;11.55;;;10.90;93.40;;;;;;4927347;28;20051;-87
2021/04/27 20:17:33;;;;;;;16.27;11.60;;;10.90;95.10;;;;;;4928396;29;20055;-88
2021/04/27 20:20:00;;;;;;;20.30;12.35;;;10.90;96.60;;;;;;4926314;29;20048;-88
2021/04/27 20:22:27;;;;;;;20.52;12.93;;;10.80;97.90;;;;;;4927897;28;20055;-88
2021/04/27 20:24:54;;;;;;;17.35;13.10;;;10.70;98.90;;;;;;4927695;29;20443;-89
2021/04/27 20:27:20;;;;;;;22.15;12.48;;;10.70;99.90;;;;;;4932606;28;20055;-88
2021/04/27 20:29:47;;;;;;;24.30;13.35;;;10.60;99.90;;;;;;4929882;29;20083;-91